sensor_id;sensor_type;location;lat;lon;timestamp;P1;durP1;ratioP1;P2;durP2;ratioP2
19179;SDS011;9722;48.754;8.868;2023-05-14T00:01:00;6.83;;;6.33;;
19179;SDS011;9722;48.754;8.868;2023-05-14T00:04:21;6.83;;;6.30;;
19179;SDS011;9722;48.754;8.868;2023-05-14T00:07:42;6.90;;;6.03;;
19179;SDS011;9722;48.754;8.868;2023-05-14T00:11:02;6.10;;;5.70;;
19179;SDS011;9722;48.754;8.868;2023-05-14T00:14:23;6.07;;;5.57;;
19179;SDS011;9722;48.754;8.868;2023-05-14T00:17:44;6.80;;;6.17;;
19179;SDS011;9722;48.754;8.868;2023-05-14T00:21:04;6.00;;;5.60;;
19179;SDS011;9722;48.754;8.868;2023-05-14T00:24:25;6.50;;;5.90;;
19179;SDS011;9722;48.754;8.868;2023-05-14T00:27:45;6.67;;;5.67;;
19179;SDS011;9722;48.754;8.868;2023-05-14T00:31:06;6.40;;;5.90;;
19179;SDS011;9722;48.754;8.868;2023-05-14T00:34:26;6.90;;;5.53;;
19179;SDS011;9722;48.754;8.868;2023-05-14T00:37:47;6.13;;;5.57;;
19179;SDS011;9722;48.754;8.868;2023-05-14T00:41:07;5.60;;;5.30;;
19179;SDS011;9722;48.754;8.868;2023-05-14T00:44:28;5.83;;;5.27;;
19179;SDS011;9722;48.754;8.868;2023-05-14T00:47:48;5.67;;;5.17;;
19179;SDS011;9722;48.754;8.868;2023-05-14T00:51:10;6.47;;;5.97;;
19179;SDS011;9722;48.754;8.868;2023-05-14T00:54:30;5.87;;;5.47;;
19179;SDS011;9722;48.754;8.868;2023-05-14T00:57:52;5.43;;;5.03;;
19179;SDS011;9722;48.754;8.868;2023-05-14T01:01:14;5.23;;;4.83;;
19179;SDS011;9722;48.754;8.868;2023-05-14T01:04:35;5.80;;;5.40;;
19179;SDS011;9722;48.754;8.868;2023-05-14T01:07:59;6.27;;;5.77;;
19179;SDS011;9722;48.754;8.868;2023-05-14T01:11:28;5.93;;;5.53;;
19179;SDS011;9722;48.754;8.868;2023-05-14T01:18:29;5.47;;;5.13;;
19179;SDS011;9722;48.754;8.868;2023-05-14T01:21:51;7.10;;;5.00;;
19179;SDS011;9722;48.754;8.868;2023-05-14T01:25:12;5.50;;;5.10;;
19179;SDS011;9722;48.754;8.868;2023-05-14T01:28:32;5.63;;;5.23;;
19179;SDS011;9722;48.754;8.868;2023-05-14T01:31:56;6.00;;;5.60;;
19179;SDS011;9722;48.754;8.868;2023-05-14T01:35:21;6.00;;;5.60;;
19179;SDS011;9722;48.754;8.868;2023-05-14T01:38:44;5.97;;;5.57;;
19179;SDS011;9722;48.754;8.868;2023-05-14T01:42:07;5.90;;;5.50;;
19179;SDS011;9722;48.754;8.868;2023-05-14T01:45:28;5.87;;;5.47;;
19179;SDS011;9722;48.754;8.868;2023-05-14T01:48:49;6.23;;;5.73;;
19179;SDS011;9722;48.754;8.868;2023-05-14T01:52:10;5.90;;;5.33;;
19179;SDS011;9722;48.754;8.868;2023-05-14T01:55:31;6.00;;;5.40;;
19179;SDS011;9722;48.754;8.868;2023-05-14T01:58:51;5.47;;;5.03;;
19179;SDS011;9722;48.754;8.868;2023-05-14T02:02:12;5.33;;;4.93;;
19179;SDS011;9722;48.754;8.868;2023-05-14T02:05:32;5.47;;;5.07;;
19179;SDS011;9722;48.754;8.868;2023-05-14T02:08:53;5.50;;;5.10;;
19179;SDS011;9722;48.754;8.868;2023-05-14T02:12:13;5.33;;;5.00;;
19179;SDS011;9722;48.754;8.868;2023-05-14T02:15:34;5.30;;;4.90;;
19179;SDS011;9722;48.754;8.868;2023-05-14T02:18:54;5.10;;;4.60;;
19179;SDS011;9722;48.754;8.868;2023-05-14T02:22:15;4.70;;;4.40;;
19179;SDS011;9722;48.754;8.868;2023-05-14T02:25:35;4.87;;;4.57;;
19179;SDS011;9722;48.754;8.868;2023-05-14T02:28:56;5.27;;;4.77;;
19179;SDS011;9722;48.754;8.868;2023-05-14T02:32:17;5.33;;;4.80;;
19179;SDS011;9722;48.754;8.868;2023-05-14T02:35:37;4.90;;;4.40;;
19179;SDS011;9722;48.754;8.868;2023-05-14T02:38:58;4.97;;;4.40;;
19179;SDS011;9722;48.754;8.868;2023-05-14T02:42:20;4.87;;;4.57;;
19179;SDS011;9722;48.754;8.868;2023-05-14T02:45:40;4.97;;;4.60;;
19179;SDS011;9722;48.754;8.868;2023-05-14T02:49:01;9.33;;;4.47;;
19179;SDS011;9722;48.754;8.868;2023-05-14T02:52:22;4.30;;;4.00;;
19179;SDS011;9722;48.754;8.868;2023-05-14T02:55:42;4.90;;;4.50;;
19179;SDS011;9722;48.754;8.868;2023-05-14T02:59:03;4.97;;;4.67;;
19179;SDS011;9722;48.754;8.868;2023-05-14T03:02:23;5.00;;;4.70;;
19179;SDS011;9722;48.754;8.868;2023-05-14T03:05:44;5.43;;;4.90;;
19179;SDS011;9722;48.754;8.868;2023-05-14T03:09:04;4.80;;;4.50;;
19179;SDS011;9722;48.754;8.868;2023-05-14T03:12:25;5.60;;;5.20;;
19179;SDS011;9722;48.754;8.868;2023-05-14T03:15:46;5.03;;;4.73;;
19179;SDS011;9722;48.754;8.868;2023-05-14T03:19:06;5.20;;;4.77;;
19179;SDS011;9722;48.754;8.868;2023-05-14T03:22:28;5.87;;;5.47;;
19179;SDS011;9722;48.754;8.868;2023-05-14T03:25:49;5.53;;;5.13;;
19179;SDS011;9722;48.754;8.868;2023-05-14T03:29:09;5.77;;;5.37;;
19179;SDS011;9722;48.754;8.868;2023-05-14T03:32:30;4.70;;;4.40;;
19179;SDS011;9722;48.754;8.868;2023-05-14T03:35:51;5.50;;;5.10;;
19179;SDS011;9722;48.754;8.868;2023-05-14T03:39:11;5.47;;;5.00;;
19179;SDS011;9722;48.754;8.868;2023-05-14T03:42:34;5.60;;;5.20;;
19179;SDS011;9722;48.754;8.868;2023-05-14T03:45:55;4.93;;;4.53;;
19179;SDS011;9722;48.754;8.868;2023-05-14T03:49:15;5.50;;;5.10;;
19179;SDS011;9722;48.754;8.868;2023-05-14T03:52:35;5.43;;;5.13;;
19179;SDS011;9722;48.754;8.868;2023-05-14T03:55:56;5.10;;;4.80;;
19179;SDS011;9722;48.754;8.868;2023-05-14T03:59:16;5.13;;;4.80;;
19179;SDS011;9722;48.754;8.868;2023-05-14T04:02:37;5.10;;;4.70;;
19179;SDS011;9722;48.754;8.868;2023-05-14T04:05:57;6.83;;;5.20;;
19179;SDS011;9722;48.754;8.868;2023-05-14T04:09:18;5.30;;;4.90;;
19179;SDS011;9722;48.754;8.868;2023-05-14T04:12:38;5.33;;;4.93;;
19179;SDS011;9722;48.754;8.868;2023-05-14T04:15:59;5.43;;;5.03;;
19179;SDS011;9722;48.754;8.868;2023-05-14T04:19:19;5.17;;;4.77;;
19179;SDS011;9722;48.754;8.868;2023-05-14T04:22:40;6.10;;;5.63;;
19179;SDS011;9722;48.754;8.868;2023-05-14T04:26:00;6.07;;;5.57;;
19179;SDS011;9722;48.754;8.868;2023-05-14T04:29:21;5.30;;;4.90;;
19179;SDS011;9722;48.754;8.868;2023-05-14T04:32:41;5.00;;;4.60;;
19179;SDS011;9722;48.754;8.868;2023-05-14T04:36:03;5.73;;;5.33;;
19179;SDS011;9722;48.754;8.868;2023-05-14T04:39:24;5.03;;;4.73;;
19179;SDS011;9722;48.754;8.868;2023-05-14T04:42:45;4.80;;;4.50;;
19179;SDS011;9722;48.754;8.868;2023-05-14T04:46:05;5.77;;;5.23;;
19179;SDS011;9722;48.754;8.868;2023-05-14T04:49:26;5.50;;;5.10;;
19179;SDS011;9722;48.754;8.868;2023-05-14T04:52:46;4.93;;;4.63;;
19179;SDS011;9722;48.754;8.868;2023-05-14T04:56:07;5.07;;;4.67;;
19179;SDS011;9722;48.754;8.868;2023-05-14T04:59:28;5.00;;;4.63;;
19179;SDS011;9722;48.754;8.868;2023-05-14T05:02:49;5.60;;;5.10;;
19179;SDS011;9722;48.754;8.868;2023-05-14T05:06:10;4.90;;;4.50;;
19179;SDS011;9722;48.754;8.868;2023-05-14T05:09:30;4.90;;;4.50;;
19179;SDS011;9722;48.754;8.868;2023-05-14T05:12:51;5.27;;;4.80;;
19179;SDS011;9722;48.754;8.868;2023-05-14T05:16:11;5.60;;;5.10;;
19179;SDS011;9722;48.754;8.868;2023-05-14T05:19:32;4.80;;;4.50;;
19179;SDS011;9722;48.754;8.868;2023-05-14T05:22:52;5.17;;;4.77;;
19179;SDS011;9722;48.754;8.868;2023-05-14T05:26:13;5.47;;;4.97;;
19179;SDS011;9722;48.754;8.868;2023-05-14T05:29:33;5.90;;;5.50;;
19179;SDS011;9722;48.754;8.868;2023-05-14T05:32:54;5.53;;;5.13;;
19179;SDS011;9722;48.754;8.868;2023-05-14T05:36:16;5.73;;;5.20;;
19179;SDS011;9722;48.754;8.868;2023-05-14T05:39:36;6.13;;;5.20;;
19179;SDS011;9722;48.754;8.868;2023-05-14T05:42:57;5.70;;;5.30;;
19179;SDS011;9722;48.754;8.868;2023-05-14T05:46:18;5.67;;;5.27;;
19179;SDS011;9722;48.754;8.868;2023-05-14T05:49:38;5.70;;;5.30;;
19179;SDS011;9722;48.754;8.868;2023-05-14T05:52:59;5.70;;;5.27;;
19179;SDS011;9722;48.754;8.868;2023-05-14T05:56:20;6.20;;;5.73;;
19179;SDS011;9722;48.754;8.868;2023-05-14T05:59:41;5.40;;;4.90;;
19179;SDS011;9722;48.754;8.868;2023-05-14T06:03:01;5.73;;;5.03;;
19179;SDS011;9722;48.754;8.868;2023-05-14T06:06:21;5.33;;;4.93;;
19179;SDS011;9722;48.754;8.868;2023-05-14T06:09:42;5.67;;;4.97;;
19179;SDS011;9722;48.754;8.868;2023-05-14T06:13:02;5.80;;;5.40;;
19179;SDS011;9722;48.754;8.868;2023-05-14T06:16:23;4.80;;;4.50;;
19179;SDS011;9722;48.754;8.868;2023-05-14T06:19:43;6.10;;;5.60;;
19179;SDS011;9722;48.754;8.868;2023-05-14T06:23:04;5.37;;;5.00;;
19179;SDS011;9722;48.754;8.868;2023-05-14T06:26:25;5.93;;;5.50;;
19179;SDS011;9722;48.754;8.868;2023-05-14T06:29:45;5.57;;;5.17;;
19179;SDS011;9722;48.754;8.868;2023-05-14T06:33:05;6.57;;;5.73;;
19179;SDS011;9722;48.754;8.868;2023-05-14T06:36:26;6.13;;;5.70;;
19179;SDS011;9722;48.754;8.868;2023-05-14T06:39:46;5.30;;;4.90;;
19179;SDS011;9722;48.754;8.868;2023-05-14T06:43:09;5.73;;;5.33;;
19179;SDS011;9722;48.754;8.868;2023-05-14T06:46:29;5.87;;;5.47;;
19179;SDS011;9722;48.754;8.868;2023-05-14T06:49:50;8.77;;;5.60;;
19179;SDS011;9722;48.754;8.868;2023-05-14T06:53:11;6.50;;;6.00;;
19179;SDS011;9722;48.754;8.868;2023-05-14T06:56:31;5.67;;;5.27;;
19179;SDS011;9722;48.754;8.868;2023-05-14T06:59:52;9.23;;;7.63;;
19179;SDS011;9722;48.754;8.868;2023-05-14T07:03:12;8.00;;;7.20;;
19179;SDS011;9722;48.754;8.868;2023-05-14T07:06:33;7.67;;;6.10;;
19179;SDS011;9722;48.754;8.868;2023-05-14T07:09:53;5.77;;;5.37;;
19179;SDS011;9722;48.754;8.868;2023-05-14T07:13:14;6.10;;;5.60;;
19179;SDS011;9722;48.754;8.868;2023-05-14T07:16:34;5.60;;;5.20;;
19179;SDS011;9722;48.754;8.868;2023-05-14T07:19:55;6.20;;;5.60;;
19179;SDS011;9722;48.754;8.868;2023-05-14T07:23:16;5.43;;;5.03;;
19179;SDS011;9722;48.754;8.868;2023-05-14T07:26:36;6.90;;;6.20;;
19179;SDS011;9722;48.754;8.868;2023-05-14T07:29:58;6.50;;;6.00;;
19179;SDS011;9722;48.754;8.868;2023-05-14T07:33:18;6.00;;;5.40;;
19179;SDS011;9722;48.754;8.868;2023-05-14T07:36:39;6.17;;;5.77;;
19179;SDS011;9722;48.754;8.868;2023-05-14T07:40:00;6.03;;;5.53;;
19179;SDS011;9722;48.754;8.868;2023-05-14T07:43:20;6.37;;;5.87;;
19179;SDS011;9722;48.754;8.868;2023-05-14T07:46:41;5.87;;;5.40;;
19179;SDS011;9722;48.754;8.868;2023-05-14T07:50:01;5.87;;;5.43;;
19179;SDS011;9722;48.754;8.868;2023-05-14T07:53:22;6.57;;;5.97;;
19179;SDS011;9722;48.754;8.868;2023-05-14T07:56:43;5.60;;;5.20;;
19179;SDS011;9722;48.754;8.868;2023-05-14T08:00:04;5.50;;;5.00;;
19179;SDS011;9722;48.754;8.868;2023-05-14T08:03:28;5.50;;;5.10;;
19179;SDS011;9722;48.754;8.868;2023-05-14T08:06:48;6.50;;;5.93;;
19179;SDS011;9722;48.754;8.868;2023-05-14T08:10:09;5.87;;;5.43;;
19179;SDS011;9722;48.754;8.868;2023-05-14T08:13:30;6.60;;;5.83;;
19179;SDS011;9722;48.754;8.868;2023-05-14T08:16:51;5.67;;;5.27;;
19179;SDS011;9722;48.754;8.868;2023-05-14T08:20:11;5.83;;;5.43;;
19179;SDS011;9722;48.754;8.868;2023-05-14T08:23:32;5.57;;;5.17;;
19179;SDS011;9722;48.754;8.868;2023-05-14T08:26:52;5.90;;;5.50;;
19179;SDS011;9722;48.754;8.868;2023-05-14T08:30:13;5.73;;;5.30;;
19179;SDS011;9722;48.754;8.868;2023-05-14T08:33:34;5.97;;;5.57;;
19179;SDS011;9722;48.754;8.868;2023-05-14T08:36:54;6.17;;;5.63;;
19179;SDS011;9722;48.754;8.868;2023-05-14T08:40:15;5.50;;;5.10;;
19179;SDS011;9722;48.754;8.868;2023-05-14T08:47:21;6.07;;;5.67;;
19179;SDS011;9722;48.754;8.868;2023-05-14T08:50:43;4.97;;;4.67;;
19179;SDS011;9722;48.754;8.868;2023-05-14T08:54:03;5.80;;;5.30;;
19179;SDS011;9722;48.754;8.868;2023-05-14T08:57:25;5.53;;;5.20;;
19179;SDS011;9722;48.754;8.868;2023-05-14T09:00:47;5.27;;;4.97;;
19179;SDS011;9722;48.754;8.868;2023-05-14T09:04:08;5.20;;;4.80;;
19179;SDS011;9722;48.754;8.868;2023-05-14T09:07:29;5.23;;;4.87;;
19179;SDS011;9722;48.754;8.868;2023-05-14T09:10:50;5.30;;;4.80;;
19179;SDS011;9722;48.754;8.868;2023-05-14T09:14:10;4.93;;;4.63;;
19179;SDS011;9722;48.754;8.868;2023-05-14T09:17:31;5.27;;;4.97;;
19179;SDS011;9722;48.754;8.868;2023-05-14T09:20:52;4.70;;;4.30;;
19179;SDS011;9722;48.754;8.868;2023-05-14T09:24:23;4.43;;;4.23;;
19179;SDS011;9722;48.754;8.868;2023-05-14T09:27:45;5.07;;;4.67;;
19179;SDS011;9722;48.754;8.868;2023-05-14T09:31:09;5.00;;;4.60;;
19179;SDS011;9722;48.754;8.868;2023-05-14T09:34:30;5.00;;;4.70;;
19179;SDS011;9722;48.754;8.868;2023-05-14T09:37:52;5.50;;;5.20;;
19179;SDS011;9722;48.754;8.868;2023-05-14T09:41:13;5.07;;;4.73;;
19179;SDS011;9722;48.754;8.868;2023-05-14T09:44:33;4.83;;;4.43;;
19179;SDS011;9722;48.754;8.868;2023-05-14T09:47:58;5.40;;;5.00;;
19179;SDS011;9722;48.754;8.868;2023-05-14T09:51:19;4.80;;;4.50;;
19179;SDS011;9722;48.754;8.868;2023-05-14T09:54:40;4.90;;;4.60;;
19179;SDS011;9722;48.754;8.868;2023-05-14T09:58:00;4.50;;;4.20;;
19179;SDS011;9722;48.754;8.868;2023-05-14T10:01:21;4.50;;;4.20;;
19179;SDS011;9722;48.754;8.868;2023-05-14T10:04:41;3.87;;;3.67;;
19179;SDS011;9722;48.754;8.868;2023-05-14T10:08:04;4.50;;;4.20;;
19179;SDS011;9722;48.754;8.868;2023-05-14T10:11:41;4.60;;;4.20;;
19179;SDS011;9722;48.754;8.868;2023-05-14T10:15:03;4.53;;;4.13;;
19179;SDS011;9722;48.754;8.868;2023-05-14T10:18:32;4.30;;;4.10;;
19179;SDS011;9722;48.754;8.868;2023-05-14T10:22:03;4.23;;;3.97;;
19179;SDS011;9722;48.754;8.868;2023-05-14T10:25:24;4.10;;;3.90;;
19179;SDS011;9722;48.754;8.868;2023-05-14T10:28:45;4.83;;;4.53;;
19179;SDS011;9722;48.754;8.868;2023-05-14T10:32:07;5.17;;;4.83;;
19179;SDS011;9722;48.754;8.868;2023-05-14T10:35:28;4.13;;;3.93;;
19179;SDS011;9722;48.754;8.868;2023-05-14T10:38:53;4.07;;;3.67;;
19179;SDS011;9722;48.754;8.868;2023-05-14T10:42:22;4.60;;;4.30;;
19179;SDS011;9722;48.754;8.868;2023-05-14T10:45:47;3.97;;;3.70;;
19179;SDS011;9722;48.754;8.868;2023-05-14T10:49:08;3.47;;;3.27;;
19179;SDS011;9722;48.754;8.868;2023-05-14T10:52:29;4.00;;;3.80;;
19179;SDS011;9722;48.754;8.868;2023-05-14T10:55:50;3.60;;;3.40;;
19179;SDS011;9722;48.754;8.868;2023-05-14T10:59:17;2.40;;;2.30;;
19179;SDS011;9722;48.754;8.868;2023-05-14T11:02:39;3.60;;;3.40;;
19179;SDS011;9722;48.754;8.868;2023-05-14T11:06:01;3.00;;;2.80;;
19179;SDS011;9722;48.754;8.868;2023-05-14T11:09:22;3.10;;;2.90;;
19179;SDS011;9722;48.754;8.868;2023-05-14T11:12:46;3.00;;;2.80;;
19179;SDS011;9722;48.754;8.868;2023-05-14T11:16:08;3.00;;;2.67;;
19179;SDS011;9722;48.754;8.868;2023-05-14T11:19:29;3.10;;;2.90;;
19179;SDS011;9722;48.754;8.868;2023-05-14T11:22:50;3.40;;;3.20;;
19179;SDS011;9722;48.754;8.868;2023-05-14T11:26:10;2.80;;;2.70;;
19179;SDS011;9722;48.754;8.868;2023-05-14T11:29:32;2.97;;;2.77;;
19179;SDS011;9722;48.754;8.868;2023-05-14T11:32:52;2.83;;;2.30;;
19179;SDS011;9722;48.754;8.868;2023-05-14T11:36:14;3.63;;;3.43;;
19179;SDS011;9722;48.754;8.868;2023-05-14T11:39:35;3.73;;;3.53;;
19179;SDS011;9722;48.754;8.868;2023-05-14T11:42:59;4.07;;;3.78;;
19179;SDS011;9722;48.754;8.868;2023-05-14T11:46:20;3.47;;;3.28;;
19179;SDS011;9722;48.754;8.868;2023-05-14T11:49:41;3.00;;;2.90;;
19179;SDS011;9722;48.754;8.868;2023-05-14T11:53:01;3.37;;;3.17;;
19179;SDS011;9722;48.754;8.868;2023-05-14T11:56:22;3.43;;;3.23;;
19179;SDS011;9722;48.754;8.868;2023-05-14T11:59:43;3.17;;;2.97;;
19179;SDS011;9722;48.754;8.868;2023-05-14T12:03:04;3.13;;;2.87;;
19179;SDS011;9722;48.754;8.868;2023-05-14T12:06:29;3.87;;;3.53;;
19179;SDS011;9722;48.754;8.868;2023-05-14T12:09:51;3.60;;;3.40;;
19179;SDS011;9722;48.754;8.868;2023-05-14T12:13:13;3.93;;;3.63;;
19179;SDS011;9722;48.754;8.868;2023-05-14T12:16:38;3.53;;;3.23;;
19179;SDS011;9722;48.754;8.868;2023-05-14T12:19:59;3.93;;;3.53;;
19179;SDS011;9722;48.754;8.868;2023-05-14T12:23:26;3.83;;;3.63;;
19179;SDS011;9722;48.754;8.868;2023-05-14T12:26:48;3.90;;;3.27;;
19179;SDS011;9722;48.754;8.868;2023-05-14T12:30:10;4.20;;;3.90;;
19179;SDS011;9722;48.754;8.868;2023-05-14T12:33:31;3.90;;;3.70;;
19179;SDS011;9722;48.754;8.868;2023-05-14T12:36:51;3.67;;;3.47;;
19179;SDS011;9722;48.754;8.868;2023-05-14T12:40:12;3.40;;;3.20;;
19179;SDS011;9722;48.754;8.868;2023-05-14T12:43:33;3.43;;;3.23;;
19179;SDS011;9722;48.754;8.868;2023-05-14T12:46:53;2.60;;;2.50;;
19179;SDS011;9722;48.754;8.868;2023-05-14T12:50:14;3.67;;;3.47;;
19179;SDS011;9722;48.754;8.868;2023-05-14T12:53:35;3.40;;;3.20;;
19179;SDS011;9722;48.754;8.868;2023-05-14T12:56:56;4.23;;;3.93;;
19179;SDS011;9722;48.754;8.868;2023-05-14T13:00:17;3.30;;;3.00;;
19179;SDS011;9722;48.754;8.868;2023-05-14T13:03:37;3.30;;;3.10;;
19179;SDS011;9722;48.754;8.868;2023-05-14T13:06:58;3.53;;;3.23;;
19179;SDS011;9722;48.754;8.868;2023-05-14T13:10:19;3.07;;;2.87;;
19179;SDS011;9722;48.754;8.868;2023-05-14T13:13:40;3.60;;;3.40;;
19179;SDS011;9722;48.754;8.868;2023-05-14T13:17:00;4.10;;;3.20;;
19179;SDS011;9722;48.754;8.868;2023-05-14T13:20:21;3.50;;;3.30;;
19179;SDS011;9722;48.754;8.868;2023-05-14T13:23:42;3.63;;;3.40;;
19179;SDS011;9722;48.754;8.868;2023-05-14T13:27:03;3.53;;;3.33;;
19179;SDS011;9722;48.754;8.868;2023-05-14T13:30:23;4.30;;;3.90;;
19179;SDS011;9722;48.754;8.868;2023-05-14T13:33:44;3.47;;;3.27;;
19179;SDS011;9722;48.754;8.868;2023-05-14T13:37:04;3.90;;;3.67;;
19179;SDS011;9722;48.754;8.868;2023-05-14T13:40:26;2.70;;;2.60;;
19179;SDS011;9722;48.754;8.868;2023-05-14T13:43:46;3.30;;;3.10;;
19179;SDS011;9722;48.754;8.868;2023-05-14T13:47:07;3.30;;;3.00;;
19179;SDS011;9722;48.754;8.868;2023-05-14T13:50:27;3.00;;;2.80;;
19179;SDS011;9722;48.754;8.868;2023-05-14T13:53:48;2.73;;;2.53;;
19179;SDS011;9722;48.754;8.868;2023-05-14T13:57:09;2.73;;;2.53;;
19179;SDS011;9722;48.754;8.868;2023-05-14T14:00:29;3.37;;;2.40;;
19179;SDS011;9722;48.754;8.868;2023-05-14T14:03:50;3.07;;;2.87;;
19179;SDS011;9722;48.754;8.868;2023-05-14T14:07:10;2.70;;;2.60;;
19179;SDS011;9722;48.754;8.868;2023-05-14T14:10:31;3.47;;;3.20;;
19179;SDS011;9722;48.754;8.868;2023-05-14T14:13:52;3.20;;;2.97;;
19179;SDS011;9722;48.754;8.868;2023-05-14T14:17:13;3.43;;;2.87;;
19179;SDS011;9722;48.754;8.868;2023-05-14T14:20:33;3.40;;;3.20;;
19179;SDS011;9722;48.754;8.868;2023-05-14T14:23:54;3.43;;;3.23;;
19179;SDS011;9722;48.754;8.868;2023-05-14T14:27:14;3.00;;;2.80;;
19179;SDS011;9722;48.754;8.868;2023-05-14T14:30:35;3.37;;;3.17;;
19179;SDS011;9722;48.754;8.868;2023-05-14T14:33:55;3.30;;;3.10;;
19179;SDS011;9722;48.754;8.868;2023-05-14T14:37:16;3.20;;;3.00;;
19179;SDS011;9722;48.754;8.868;2023-05-14T14:40:36;4.43;;;2.90;;
19179;SDS011;9722;48.754;8.868;2023-05-14T14:43:57;3.20;;;2.90;;
19179;SDS011;9722;48.754;8.868;2023-05-14T14:47:17;3.33;;;3.13;;
19179;SDS011;9722;48.754;8.868;2023-05-14T14:50:38;3.17;;;2.83;;
19179;SDS011;9722;48.754;8.868;2023-05-14T14:53:58;3.30;;;3.00;;
19179;SDS011;9722;48.754;8.868;2023-05-14T14:57:19;2.73;;;2.57;;
19179;SDS011;9722;48.754;8.868;2023-05-14T15:00:40;2.80;;;2.60;;
19179;SDS011;9722;48.754;8.868;2023-05-14T15:04:02;2.90;;;2.70;;
19179;SDS011;9722;48.754;8.868;2023-05-14T15:07:22;4.07;;;3.00;;
19179;SDS011;9722;48.754;8.868;2023-05-14T15:10:43;3.03;;;2.83;;
19179;SDS011;9722;48.754;8.868;2023-05-14T15:14:04;3.77;;;2.80;;
19179;SDS011;9722;48.754;8.868;2023-05-14T15:17:25;3.20;;;3.00;;
19179;SDS011;9722;48.754;8.868;2023-05-14T15:20:45;3.20;;;3.00;;
19179;SDS011;9722;48.754;8.868;2023-05-14T15:24:06;3.50;;;3.20;;
19179;SDS011;9722;48.754;8.868;2023-05-14T15:27:30;3.10;;;2.90;;
19179;SDS011;9722;48.754;8.868;2023-05-14T15:30:50;2.73;;;2.63;;
19179;SDS011;9722;48.754;8.868;2023-05-14T15:34:11;2.90;;;2.70;;
19179;SDS011;9722;48.754;8.868;2023-05-14T15:37:36;2.50;;;2.30;;
19179;SDS011;9722;48.754;8.868;2023-05-14T15:41:01;2.70;;;2.50;;
19179;SDS011;9722;48.754;8.868;2023-05-14T15:44:22;2.60;;;2.43;;
19179;SDS011;9722;48.754;8.868;2023-05-14T15:47:42;2.17;;;2.07;;
19179;SDS011;9722;48.754;8.868;2023-05-14T15:51:03;2.10;;;2.00;;
19179;SDS011;9722;48.754;8.868;2023-05-14T15:54:24;2.17;;;2.07;;
19179;SDS011;9722;48.754;8.868;2023-05-14T15:57:46;2.20;;;2.10;;
19179;SDS011;9722;48.754;8.868;2023-05-14T16:01:06;2.03;;;1.93;;
19179;SDS011;9722;48.754;8.868;2023-05-14T16:04:27;2.43;;;2.23;;
19179;SDS011;9722;48.754;8.868;2023-05-14T16:07:47;2.60;;;2.50;;
19179;SDS011;9722;48.754;8.868;2023-05-14T16:11:08;2.50;;;2.17;;
19179;SDS011;9722;48.754;8.868;2023-05-14T16:14:28;2.20;;;2.00;;
19179;SDS011;9722;48.754;8.868;2023-05-14T16:17:49;2.77;;;1.90;;
19179;SDS011;9722;48.754;8.868;2023-05-14T16:21:09;2.10;;;2.00;;
19179;SDS011;9722;48.754;8.868;2023-05-14T16:24:30;2.60;;;2.40;;
19179;SDS011;9722;48.754;8.868;2023-05-14T16:27:50;2.40;;;2.30;;
19179;SDS011;9722;48.754;8.868;2023-05-14T16:31:11;2.30;;;2.20;;
19179;SDS011;9722;48.754;8.868;2023-05-14T16:34:32;2.30;;;2.20;;
19179;SDS011;9722;48.754;8.868;2023-05-14T16:37:53;2.50;;;2.30;;
19179;SDS011;9722;48.754;8.868;2023-05-14T16:41:13;2.13;;;2.03;;
19179;SDS011;9722;48.754;8.868;2023-05-14T16:44:34;2.87;;;2.37;;
19179;SDS011;9722;48.754;8.868;2023-05-14T16:47:54;2.33;;;2.23;;
19179;SDS011;9722;48.754;8.868;2023-05-14T16:51:15;2.70;;;2.50;;
19179;SDS011;9722;48.754;8.868;2023-05-14T16:54:36;3.53;;;2.60;;
19179;SDS011;9722;48.754;8.868;2023-05-14T16:57:56;2.53;;;2.40;;
19179;SDS011;9722;48.754;8.868;2023-05-14T17:01:16;2.73;;;2.53;;
19179;SDS011;9722;48.754;8.868;2023-05-14T17:04:37;2.80;;;2.60;;
19179;SDS011;9722;48.754;8.868;2023-05-14T17:08:00;2.37;;;2.27;;
19179;SDS011;9722;48.754;8.868;2023-05-14T17:11:21;2.93;;;2.73;;
19179;SDS011;9722;48.754;8.868;2023-05-14T17:14:41;2.30;;;2.20;;
19179;SDS011;9722;48.754;8.868;2023-05-14T17:18:02;2.50;;;2.30;;
19179;SDS011;9722;48.754;8.868;2023-05-14T17:21:22;2.53;;;2.33;;
19179;SDS011;9722;48.754;8.868;2023-05-14T17:24:43;2.30;;;2.20;;
19179;SDS011;9722;48.754;8.868;2023-05-14T17:28:04;2.37;;;2.27;;
19179;SDS011;9722;48.754;8.868;2023-05-14T17:31:24;2.57;;;2.37;;
19179;SDS011;9722;48.754;8.868;2023-05-14T17:34:45;2.40;;;2.20;;
19179;SDS011;9722;48.754;8.868;2023-05-14T17:38:05;2.67;;;2.47;;
19179;SDS011;9722;48.754;8.868;2023-05-14T17:41:26;2.50;;;2.30;;
19179;SDS011;9722;48.754;8.868;2023-05-14T17:44:46;2.80;;;2.60;;
19179;SDS011;9722;48.754;8.868;2023-05-14T17:48:07;2.40;;;2.20;;
19179;SDS011;9722;48.754;8.868;2023-05-14T17:51:27;2.50;;;2.30;;
19179;SDS011;9722;48.754;8.868;2023-05-14T17:54:48;2.73;;;2.53;;
19179;SDS011;9722;48.754;8.868;2023-05-14T17:58:09;2.27;;;2.07;;
19179;SDS011;9722;48.754;8.868;2023-05-14T18:01:32;2.70;;;2.50;;
19179;SDS011;9722;48.754;8.868;2023-05-14T18:04:52;2.13;;;2.03;;
19179;SDS011;9722;48.754;8.868;2023-05-14T18:08:13;2.53;;;2.43;;
19179;SDS011;9722;48.754;8.868;2023-05-14T18:11:34;2.83;;;2.63;;
19179;SDS011;9722;48.754;8.868;2023-05-14T18:14:54;2.60;;;2.40;;
19179;SDS011;9722;48.754;8.868;2023-05-14T18:18:15;2.80;;;2.60;;
19179;SDS011;9722;48.754;8.868;2023-05-14T18:21:37;3.67;;;3.37;;
19179;SDS011;9722;48.754;8.868;2023-05-14T18:24:58;2.50;;;2.40;;
19179;SDS011;9722;48.754;8.868;2023-05-14T18:28:18;2.87;;;2.67;;
19179;SDS011;9722;48.754;8.868;2023-05-14T18:31:40;2.87;;;2.67;;
19179;SDS011;9722;48.754;8.868;2023-05-14T18:35:00;3.33;;;3.13;;
19179;SDS011;9722;48.754;8.868;2023-05-14T18:38:21;4.70;;;2.33;;
19179;SDS011;9722;48.754;8.868;2023-05-14T18:41:41;2.37;;;2.27;;
19179;SDS011;9722;48.754;8.868;2023-05-14T18:45:02;3.07;;;2.87;;
19179;SDS011;9722;48.754;8.868;2023-05-14T18:48:23;2.90;;;2.70;;
19179;SDS011;9722;48.754;8.868;2023-05-14T18:51:45;3.50;;;3.30;;
19179;SDS011;9722;48.754;8.868;2023-05-14T18:55:05;3.53;;;3.33;;
19179;SDS011;9722;48.754;8.868;2023-05-14T18:58:26;3.80;;;3.60;;
19179;SDS011;9722;48.754;8.868;2023-05-14T19:01:47;3.83;;;3.63;;
19179;SDS011;9722;48.754;8.868;2023-05-14T19:05:07;4.03;;;3.67;;
19179;SDS011;9722;48.754;8.868;2023-05-14T19:08:28;3.90;;;3.60;;
19179;SDS011;9722;48.754;8.868;2023-05-14T19:11:48;3.90;;;3.40;;
19179;SDS011;9722;48.754;8.868;2023-05-14T19:15:09;3.57;;;3.27;;
19179;SDS011;9722;48.754;8.868;2023-05-14T19:18:30;5.37;;;4.97;;
19179;SDS011;9722;48.754;8.868;2023-05-14T19:21:51;4.50;;;4.20;;
19179;SDS011;9722;48.754;8.868;2023-05-14T19:25:12;4.60;;;4.30;;
19179;SDS011;9722;48.754;8.868;2023-05-14T19:28:32;5.17;;;4.77;;
19179;SDS011;9722;48.754;8.868;2023-05-14T19:31:53;5.00;;;4.60;;
19179;SDS011;9722;48.754;8.868;2023-05-14T19:35:13;4.80;;;4.40;;
19179;SDS011;9722;48.754;8.868;2023-05-14T19:38:34;4.73;;;3.80;;
19179;SDS011;9722;48.754;8.868;2023-05-14T19:41:55;3.70;;;3.43;;
19179;SDS011;9722;48.754;8.868;2023-05-14T19:45:15;4.17;;;3.87;;
19179;SDS011;9722;48.754;8.868;2023-05-14T19:48:36;4.27;;;3.97;;
19179;SDS011;9722;48.754;8.868;2023-05-14T19:51:57;3.80;;;3.50;;
19179;SDS011;9722;48.754;8.868;2023-05-14T19:55:18;4.80;;;4.47;;
19179;SDS011;9722;48.754;8.868;2023-05-14T19:58:38;4.30;;;4.00;;
19179;SDS011;9722;48.754;8.868;2023-05-14T20:01:59;5.73;;;5.23;;
19179;SDS011;9722;48.754;8.868;2023-05-14T20:05:20;5.03;;;4.47;;
19179;SDS011;9722;48.754;8.868;2023-05-14T20:08:40;4.10;;;3.80;;
19179;SDS011;9722;48.754;8.868;2023-05-14T20:12:01;4.10;;;3.80;;
19179;SDS011;9722;48.754;8.868;2023-05-14T20:15:21;5.93;;;3.43;;
19179;SDS011;9722;48.754;8.868;2023-05-14T20:18:42;3.93;;;3.63;;
19179;SDS011;9722;48.754;8.868;2023-05-14T20:22:03;3.70;;;3.40;;
19179;SDS011;9722;48.754;8.868;2023-05-14T20:25:23;3.40;;;3.10;;
19179;SDS011;9722;48.754;8.868;2023-05-14T20:28:45;3.90;;;3.60;;
19179;SDS011;9722;48.754;8.868;2023-05-14T20:32:05;4.07;;;3.77;;
19179;SDS011;9722;48.754;8.868;2023-05-14T20:35:26;5.03;;;4.63;;